Time;durP1;ratioP1;P1;durP2;ratioP2;P2;SDS_P1;SDS_P2;PMS_P1;PMS_P2;Temp;Humidity;BMP_temperature;BMP_pressure;BME280_temperature;BME280_humidity;BME280_pressure;Samples;Min_cycle;Max_cycle;Signal;HPM_P1;HPM_P2
2021/06/17 00:00:33;;;;;;;12.43;8.45;;;19.70;99.90;;;;;;4975111;28;20073;-78
2021/06/17 00:02:59;;;;;;;16.02;12.82;;;19.60;99.90;;;;;;4957278;28;20117;-78
2021/06/17 00:05:30;;;;;;;31.33;25.25;;;19.60;99.90;;;;;;4974753;28;20081;-78
2021/06/17 00:07:56;;;;;;;25.83;23.23;;;19.70;99.90;;;;;;4974888;28;20035;-78
2021/06/17 00:10:34;;;;;;;22.92;20.60;;;19.70;99.90;;;;;;4974601;28;20133;-76
2021/06/17 00:13:04;;;;;;;14.82;11.32;;;19.70;99.90;;;;;;4957438;28;20027;-78
2021/06/17 00:15:32;;;;;;;13.70;10.48;;;19.70;99.90;;;;;;4974655;28;20373;-77
2021/06/17 00:17:58;;;;;;;13.30;8.95;;;19.80;99.90;;;;;;4957325;28;20033;-78
2021/06/17 00:20:26;;;;;;;14.95;9.45;;;19.80;99.90;;;;;;4974725;28;20023;-78
2021/06/17 00:22:52;;;;;;;14.52;9.35;;;19.80;99.90;;;;;;4957303;28;20059;-79
2021/06/17 00:25:18;;;;;;;15.20;9.43;;;19.90;99.90;;;;;;4957416;28;20477;-78
2021/06/17 00:27:44;;;;;;;13.68;9.38;;;19.80;99.90;;;;;;4957231;28;20422;-77
2021/06/17 00:30:12;;;;;;;11.10;8.68;;;19.90;99.90;;;;;;4974492;28;20023;-79
2021/06/17 00:32:38;;;;;;;13.32;8.45;;;19.90;99.90;;;;;;4974380;28;20019;-79
2021/06/17 00:35:05;;;;;;;11.27;8.27;;;19.80;99.90;;;;;;4974561;28;20054;-79
2021/06/17 00:37:32;;;;;;;12.55;8.20;;;19.80;99.90;;;;;;4974263;28;20114;-79
2021/06/17 00:39:59;;;;;;;11.43;8.45;;;19.80;99.90;;;;;;4973907;28;20116;-77
2021/06/17 00:42:26;;;;;;;11.85;8.55;;;19.60;99.90;;;;;;4973286;28;20077;-77
2021/06/17 00:44:52;;;;;;;13.95;8.90;;;19.50;99.90;;;;;;4973078;28;20106;-77
2021/06/17 00:47:18;;;;;;;10.93;8.52;;;19.40;99.90;;;;;;4957131;28;20492;-77
2021/06/17 00:49:44;;;;;;;14.02;8.35;;;19.30;99.90;;;;;;4974417;28;20465;-78
2021/06/17 00:52:11;;;;;;;12.80;7.85;;;19.30;99.90;;;;;;4974314;28;20381;-78
2021/06/17 00:54:37;;;;;;;12.35;8.40;;;19.30;99.90;;;;;;4956904;28;20031;-77
2021/06/17 00:57:08;;;;;;;12.20;8.25;;;19.30;99.90;;;;;;4974577;28;20027;-78
2021/06/17 00:59:35;;;;;;;12.98;8.60;;;19.20;99.90;;;;;;4974226;28;20081;-78
2021/06/17 01:02:02;;;;;;;11.73;8.73;;;19.20;99.90;;;;;;4956783;28;20042;-77
2021/06/17 01:04:28;;;;;;;12.82;8.80;;;19.20;99.90;;;;;;4956816;29;20055;-78
2021/06/17 01:06:56;;;;;;;13.60;8.65;;;19.20;99.90;;;;;;4957067;28;20553;-77
2021/06/17 01:09:40;;;;;;;11.90;8.10;;;19.30;99.90;;;;;;4958399;28;20054;-77
2021/06/17 01:12:11;;;;;;;12.88;8.38;;;19.30;99.90;;;;;;4958411;29;20024;-77
2021/06/17 01:15:02;;;;;;;12.82;7.90;;;19.40;99.90;;;;;;4958570;28;20028;-77
2021/06/17 01:17:32;;;;;;;10.68;8.15;;;19.40;99.90;;;;;;4958500;28;20561;-78
2021/06/17 01:20:17;;;;;;;11.68;8.05;;;19.40;99.90;;;;;;4958275;28;20028;-77
2021/06/17 01:23:09;;;;;;;12.98;8.57;;;19.30;99.90;;;;;;4958336;28;20031;-77
2021/06/17 01:25:53;;;;;;;15.05;8.13;;;19.30;99.90;;;;;;4956863;28;20027;-78
2021/06/17 01:28:20;;;;;;;12.55;8.13;;;19.30;99.90;;;;;;4956716;28;20381;-78
2021/06/17 01:30:49;;;;;;;13.25;8.45;;;19.10;99.90;;;;;;4957253;28;20031;-78
2021/06/17 01:33:17;;;;;;;12.35;9.18;;;19.10;99.90;;;;;;4956877;28;20055;-78
2021/06/17 01:35:47;;;;;;;12.88;9.07;;;19.00;99.90;;;;;;4958125;28;20474;-79
2021/06/17 01:38:16;;;;;;;16.05;10.13;;;18.90;99.90;;;;;;4955967;28;20035;-77
2021/06/17 01:40:45;;;;;;;14.65;9.90;;;19.00;99.90;;;;;;4957887;29;20027;-78
2021/06/17 01:43:13;;;;;;;13.98;9.50;;;18.80;99.90;;;;;;4956638;28;20027;-77
2021/06/17 01:45:39;;;;;;;14.38;9.55;;;18.80;99.90;;;;;;4957698;28;20572;-77
2021/06/17 01:48:07;;;;;;;14.18;8.93;;;18.70;99.90;;;;;;4957795;28;20422;-79
2021/06/17 01:50:33;;;;;;;11.30;9.18;;;18.80;99.90;;;;;;4956390;29;20031;-77
2021/06/17 01:52:59;;;;;;;14.00;9.07;;;18.80;99.90;;;;;;4956613;28;21039;-77
2021/06/17 01:55:34;;;;;;;11.00;9.20;;;18.70;99.90;;;;;;4957849;29;20107;-78
2021/06/17 01:58:05;;;;;;;15.63;9.68;;;18.60;99.90;;;;;;4957777;28;20050;-78
2021/06/17 02:00:33;;;;;;;12.80;8.82;;;18.70;99.90;;;;;;4956510;28;20027;-78
2021/06/17 02:03:04;;;;;;;13.77;8.88;;;18.70;99.90;;;;;;4957264;28;20027;-78
2021/06/17 02:05:32;;;;;;;16.20;8.98;;;18.80;99.90;;;;;;4975123;28;20046;-78
2021/06/17 02:07:59;;;;;;;13.50;8.43;;;18.80;99.90;;;;;;4976679;28;20077;-77
2021/06/17 02:10:29;;;;;;;13.45;8.80;;;18.70;99.90;;;;;;4959167;28;20027;-77
2021/06/17 02:12:56;;;;;;;14.65;8.77;;;18.60;99.90;;;;;;4976880;28;20026;-78
2021/06/17 02:15:29;;;;;;;11.95;8.25;;;18.60;99.90;;;;;;4976499;28;20030;-77
2021/06/17 02:17:56;;;;;;;13.27;8.35;;;18.60;99.90;;;;;;4976696;28;20146;-77
2021/06/17 02:20:23;;;;;;;11.07;8.75;;;18.70;99.90;;;;;;4958955;28;20054;-78
2021/06/17 02:22:53;;;;;;;15.30;9.27;;;18.60;99.90;;;;;;4976222;28;20030;-78
2021/06/17 02:25:21;;;;;;;16.98;9.60;;;18.70;99.90;;;;;;4976220;28;20015;-78
2021/06/17 02:27:52;;;;;;;11.20;8.70;;;18.60;99.90;;;;;;4976355;28;20025;-78
2021/06/17 02:30:19;;;;;;;14.05;9.00;;;18.50;99.90;;;;;;4958944;28;20018;-77
2021/06/17 02:32:49;;;;;;;13.07;8.27;;;18.60;99.90;;;;;;4976228;28;20046;-78
2021/06/17 02:35:22;;;;;;;11.10;8.70;;;18.70;99.90;;;;;;4958206;28;20029;-78
2021/06/17 02:37:56;;;;;;;14.70;9.73;;;18.70;99.90;;;;;;4958738;28;20031;-78
2021/06/17 02:40:25;;;;;;;14.32;10.00;;;18.50;99.90;;;;;;4957748;28;20031;-78
2021/06/17 02:42:53;;;;;;;13.68;9.32;;;18.50;99.90;;;;;;4975317;28;20038;-77
2021/06/17 02:45:22;;;;;;;14.32;9.23;;;18.60;99.90;;;;;;4976238;28;20019;-79
2021/06/17 02:47:48;;;;;;;15.00;9.23;;;18.50;99.90;;;;;;4958322;28;20026;-78
2021/06/17 02:50:16;;;;;;;13.52;9.02;;;18.50;99.90;;;;;;4974831;28;20057;-79
2021/06/17 02:52:42;;;;;;;14.05;9.02;;;18.60;99.90;;;;;;4958542;28;20043;-78
2021/06/17 02:55:08;;;;;;;13.88;8.73;;;18.60;99.90;;;;;;4958456;28;20027;-78
2021/06/17 02:57:48;;;;;;;13.75;9.40;;;18.60;99.90;;;;;;4958443;28;20022;-77
2021/06/17 03:00:19;;;;;;;16.23;9.27;;;18.50;99.90;;;;;;4975839;28;20023;-78
2021/06/17 03:03:04;;;;;;;15.75;9.80;;;18.50;99.90;;;;;;4975540;28;20114;-78
2021/06/17 03:05:52;;;;;;;16.88;9.80;;;18.50;99.90;;;;;;4975491;28;20457;-77
2021/06/17 03:08:33;;;;;;;16.73;9.90;;;18.50;99.90;;;;;;4958233;28;20465;-79
2021/06/17 03:11:02;;;;;;;17.27;9.98;;;18.40;99.90;;;;;;4975459;28;20018;-79
2021/06/17 03:13:32;;;;;;;20.92;10.02;;;18.40;99.90;;;;;;4975777;28;20019;-78
2021/06/17 03:15:58;;;;;;;19.05;11.77;;;18.30;99.90;;;;;;4975482;28;20022;-78
2021/06/17 03:18:26;;;;;;;22.02;15.13;;;18.20;99.90;;;;;;4975783;28;20015;-78
2021/06/17 03:20:56;;;;;;;23.30;13.95;;;18.10;99.90;;;;;;4975333;28;20105;-78
2021/06/17 03:23:25;;;;;;;18.70;12.48;;;18.10;99.90;;;;;;4975354;28;20034;-77
2021/06/17 03:25:54;;;;;;;20.60;11.35;;;18.00;99.90;;;;;;4975055;28;20425;-79
2021/06/17 03:28:22;;;;;;;17.60;11.07;;;18.00;99.90;;;;;;4957975;28;20442;-77
2021/06/17 03:30:50;;;;;;;17.40;11.70;;;17.90;99.90;;;;;;4975298;28;20027;-78
2021/06/17 03:33:23;;;;;;;15.60;11.10;;;17.90;99.90;;;;;;4974922;28;20019;-79
2021/06/17 03:35:51;;;;;;;29.17;18.75;;;17.90;99.90;;;;;;4975386;28;20019;-78
2021/06/17 03:38:18;;;;;;;20.73;16.65;;;17.90;99.90;;;;;;4975149;28;20027;-78
2021/06/17 03:40:47;;;;;;;21.33;15.40;;;17.90;99.90;;;;;;4975059;28;20034;-77
2021/06/17 03:43:15;;;;;;;21.77;13.15;;;18.00;99.90;;;;;;4957850;28;20027;-79
2021/06/17 03:45:43;;;;;;;13.68;10.18;;;18.00;99.90;;;;;;4957700;28;20030;-78
2021/06/17 03:48:12;;;;;;;13.48;10.43;;;18.10;99.90;;;;;;4957606;28;20370;-77
2021/06/17 03:50:39;;;;;;;18.02;9.73;;;18.00;99.90;;;;;;4974974;28;20019;-77
2021/06/17 03:53:07;;;;;;;13.75;10.00;;;18.10;99.90;;;;;;4957583;28;20029;-79
2021/06/17 03:55:34;;;;;;;13.82;9.23;;;18.20;99.90;;;;;;4974911;28;20110;-78
2021/06/17 03:58:01;;;;;;;14.40;10.00;;;18.30;99.90;;;;;;4974951;28;20027;-78
2021/06/17 04:00:32;;;;;;;12.57;10.10;;;18.40;99.90;;;;;;4974834;28;20022;-78
2021/06/17 04:03:04;;;;;;;14.00;10.45;;;18.40;99.90;;;;;;4957297;28;20031;-78
2021/06/17 04:05:30;;;;;;;13.57;9.15;;;18.60;99.90;;;;;;4974512;28;20051;-78
2021/06/17 04:07:58;;;;;;;17.80;9.60;;;18.30;99.90;;;;;;4957756;28;20106;-78
2021/06/17 04:10:24;;;;;;;12.57;8.45;;;18.20;99.90;;;;;;4957547;28;20027;-79
2021/06/17 04:12:55;;;;;;;16.15;10.07;;;18.20;99.90;;;;;;4974782;28;20078;-77
2021/06/17 04:15:21;;;;;;;17.05;10.65;;;18.20;99.90;;;;;;4974896;28;20473;-79
2021/06/17 04:17:52;;;;;;;15.27;9.85;;;18.20;99.90;;;;;;4957373;28;20029;-77
2021/06/17 04:20:23;;;;;;;12.13;8.68;;;18.30;99.90;;;;;;4974708;28;20030;-78
2021/06/17 04:22:51;;;;;;;14.13;8.50;;;18.40;99.90;;;;;;4974797;28;20110;-78
2021/06/17 04:25:19;;;;;;;14.02;9.15;;;18.70;99.90;;;;;;4974801;28;20065;-78
2021/06/17 04:27:48;;;;;;;14.13;9.18;;;18.70;99.90;;;;;;4974849;28;20046;-77
2021/06/17 04:30:17;;;;;;;17.30;11.15;;;18.50;99.90;;;;;;4974283;28;20027;-79
2021/06/17 04:32:45;;;;;;;19.13;10.88;;;18.50;99.90;;;;;;4974654;28;20050;-77
2021/06/17 04:35:12;;;;;;;16.05;11.60;;;18.50;99.90;;;;;;4957169;28;20078;-78
2021/06/17 04:37:38;;;;;;;13.68;10.25;;;18.40;99.90;;;;;;4975753;28;20081;-78
2021/06/17 04:40:07;;;;;;;13.80;8.50;;;18.70;99.90;;;;;;4978316;28;20081;-77
2021/06/17 04:42:34;;;;;;;13.85;9.23;;;18.90;99.90;;;;;;4960401;28;20027;-77
2021/06/17 04:45:01;;;;;;;13.45;8.65;;;18.90;99.90;;;;;;4977957;28;20418;-79
2021/06/17 04:47:27;;;;;;;12.85;8.98;;;19.00;99.90;;;;;;4978103;28;20033;-77
2021/06/17 04:49:53;;;;;;;13.90;8.43;;;19.10;99.90;;;;;;4978384;28;20030;-77
2021/06/17 04:52:21;;;;;;;16.17;8.20;;;;;;;;;;4977947;28;20019;-79
2021/06/17 04:54:47;;;;;;;13.05;7.82;;;19.40;99.90;;;;;;4960693;28;20019;-78
2021/06/17 04:57:13;;;;;;;11.73;8.02;;;19.50;99.90;;;;;;4960595;28;20026;-79
2021/06/17 04:59:39;;;;;;;12.98;8.40;;;19.50;99.90;;;;;;4977781;28;20031;-80
2021/06/17 05:02:05;;;;;;;12.65;7.65;;;19.60;99.90;;;;;;4977908;28;20049;-80
2021/06/17 05:04:31;;;;;;;14.23;8.05;;;19.70;99.90;;;;;;4977646;28;20050;-78
2021/06/17 05:12:13;;;;;;;9.75;6.90;;;20.20;99.90;;;;;;4978029;28;20029;-77
2021/06/17 05:14:39;;;;;;;10.23;7.07;;;20.40;99.90;;;;;;4960101;28;20426;-78
2021/06/17 05:17:05;;;;;;;12.02;6.50;;;20.60;99.90;;;;;;4977286;28;20031;-79
2021/06/17 05:19:31;;;;;;;9.73;6.57;;;20.70;99.90;;;;;;4960306;28;20485;-80
2021/06/17 05:21:57;;;;;;;10.75;7.10;;;20.80;99.90;;;;;;4977433;28;20122;-78
2021/06/17 05:24:24;;;;;;;10.52;6.50;;;20.90;99.90;;;;;;4960012;28;20061;-78
2021/06/17 05:26:49;;;;;;;11.38;6.85;;;21.10;99.90;;;;;;4977340;28;20050;-79
2021/06/17 05:29:16;;;;;;;11.27;6.70;;;21.20;99.90;;;;;;4977623;28;20058;-80
2021/06/17 05:31:41;;;;;;;9.40;6.72;;;21.20;99.90;;;;;;4960035;28;20018;-78
2021/06/17 05:34:07;;;;;;;9.85;6.45;;;21.30;99.90;;;;;;4977554;28;20362;-79
2021/06/17 05:36:33;;;;;;;10.73;6.63;;;21.40;99.90;;;;;;4977326;28;20386;-78
2021/06/17 05:38:59;;;;;;;12.50;7.00;;;21.30;99.90;;;;;;4977436;28;20030;-79
2021/06/17 05:41:25;;;;;;;10.15;6.00;;;21.50;99.90;;;;;;4977102;28;20109;-78
2021/06/17 05:43:52;;;;;;;8.43;6.07;;;21.70;99.90;;;;;;4977013;28;20035;-77
2021/06/17 05:46:17;;;;;;;10.57;6.28;;;21.70;99.90;;;;;;4959620;28;20417;-77
2021/06/17 05:48:43;;;;;;;7.82;6.43;;;21.90;99.90;;;;;;4976727;28;20536;-82
2021/06/17 05:51:17;;;;;;;11.80;6.40;;;21.90;99.90;;;;;;4959820;28;20055;-85
2021/06/17 05:53:45;;;;;;;8.07;6.40;;;21.70;99.90;;;;;;4977101;28;20049;-81
2021/06/17 05:56:13;;;;;;;9.25;6.47;;;21.60;99.90;;;;;;4977029;28;20026;-77
2021/06/17 05:58:42;;;;;;;10.15;6.55;;;21.60;99.90;;;;;;4959788;28;20030;-78
2021/06/17 06:01:08;;;;;;;9.90;6.03;;;21.40;99.90;;;;;;4959582;28;20401;-83
2021/06/17 06:03:34;;;;;;;9.82;6.53;;;21.40;99.90;;;;;;4959381;28;20034;-77
2021/06/17 06:06:03;;;;;;;9.63;6.03;;;21.70;99.90;;;;;;4959803;28;20066;-77
2021/06/17 06:08:29;;;;;;;10.40;6.20;;;21.80;99.90;;;;;;4959340;28;20023;-79
2021/06/17 06:10:55;;;;;;;7.28;5.90;;;22.10;99.90;;;;;;4959370;28;20489;-79
2021/06/17 06:13:21;;;;;;;8.75;5.70;;;22.20;99.90;;;;;;4959589;28;20378;-82
2021/06/17 06:15:47;;;;;;;8.02;5.45;;;22.20;99.90;;;;;;4959100;28;20038;-80
2021/06/17 06:18:18;;;;;;;13.13;5.70;;;22.50;99.80;;;;;;4976870;28;20027;-76
2021/06/17 06:20:47;;;;;;;8.15;5.10;;;22.70;99.60;;;;;;4959343;28;20034;-77
2021/06/17 06:23:16;;;;;;;11.63;5.55;;;23.00;99.30;;;;;;4958806;28;20030;-80
2021/06/17 06:25:47;;;;;;;9.75;5.43;;;23.10;98.80;;;;;;4976209;28;20477;-79
2021/06/17 06:28:13;;;;;;;11.15;5.63;;;23.20;98.30;;;;;;4976418;28;20121;-79
2021/06/17 06:30:39;;;;;;;11.65;5.75;;;23.40;97.70;;;;;;4958989;28;20037;-82
2021/06/17 06:33:05;;;;;;;8.55;5.05;;;23.40;98.10;;;;;;4959361;28;20077;-81
2021/06/17 06:35:32;;;;;;;6.75;5.20;;;23.50;97.20;;;;;;4976584;28;20022;-81
2021/06/17 06:38:00;;;;;;;7.60;5.10;;;23.60;96.90;;;;;;4976228;28;20366;-77
2021/06/17 06:40:27;;;;;;;10.05;5.60;;;23.80;97.20;;;;;;4958843;28;20452;-79
2021/06/17 06:42:55;;;;;;;7.18;5.35;;;24.10;98.10;;;;;;4976206;28;20123;-81
2021/06/17 06:45:21;;;;;;;10.48;5.60;;;24.10;96.80;;;;;;4976395;28;20081;-81
2021/06/17 06:47:47;;;;;;;9.93;5.43;;;24.20;96.40;;;;;;4958785;28;20048;-83
2021/06/17 06:50:14;;;;;;;8.93;5.57;;;24.20;96.10;;;;;;4975594;28;20023;-80
2021/06/17 06:52:40;;;;;;;7.53;5.35;;;24.10;96.20;;;;;;4958276;28;20049;-81
2021/06/17 06:55:07;;;;;;;11.05;5.65;;;24.10;96.20;;;;;;4975984;28;20114;-81
2021/06/17 06:57:34;;;;;;;8.82;5.30;;;24.30;96.10;;;;;;4975472;28;20015;-79
2021/06/17 07:00:02;;;;;;;8.68;5.53;;;24.50;96.80;;;;;;4957604;28;20030;-83
2021/06/17 07:02:28;;;;;;;11.15;5.75;;;24.50;95.60;;;;;;4975616;28;20559;-80
2021/06/17 07:04:54;;;;;;;9.45;5.25;;;24.70;95.90;;;;;;4954749;29;20146;-77
2021/06/17 07:07:20;;;;;;;9.35;5.38;;;24.80;95.80;;;;;;4956314;29;20094;-75
2021/06/17 07:09:46;;;;;;;9.52;4.97;;;24.90;94.40;;;;;;4956274;28;20028;-77
2021/06/17 07:12:12;;;;;;;8.93;5.57;;;25.10;95.00;;;;;;4956278;28;20027;-77
2021/06/17 07:14:38;;;;;;;9.43;5.20;;;25.30;94.80;;;;;;4955178;28;20027;-78
2021/06/17 07:17:04;;;;;;;8.90;5.70;;;25.30;94.70;;;;;;4954696;29;20074;-79
2021/06/17 07:19:30;;;;;;;9.32;5.55;;;25.40;94.20;;;;;;4956120;28;20482;-79
2021/06/17 07:21:58;;;;;;;11.25;5.60;;;25.10;94.40;;;;;;4954868;28;20517;-75
2021/06/17 07:24:24;;;;;;;10.30;5.82;;;24.90;95.60;;;;;;4954781;29;20030;-74
2021/06/17 07:26:52;;;;;;;12.13;5.22;;;;;;;;;;4954672;29;20027;-77
2021/06/17 07:29:18;;;;;;;9.57;5.32;;;24.80;96.80;;;;;;4954683;28;20062;-78
2021/06/17 07:31:44;;;;;;;11.00;6.00;;;24.70;96.10;;;;;;4954547;29;20050;-72
2021/06/17 07:34:11;;;;;;;9.90;5.43;;;25.10;95.80;;;;;;4954656;28;20363;-74
2021/06/17 07:36:38;;;;;;;11.73;5.28;;;;;;;;;;4956174;28;20496;-78
2021/06/17 07:39:09;;;;;;;10.25;5.38;;;25.70;94.20;;;;;;4954366;29;20027;-74
2021/06/17 07:41:36;;;;;;;9.00;4.90;;;25.90;93.50;;;;;;4955583;28;20054;-77
2021/06/17 07:44:03;;;;;;;7.70;4.53;;;26.10;93.40;;;;;;4954192;28;20043;-79
2021/06/17 07:46:29;;;;;;;9.88;4.68;;;26.40;92.70;;;;;;4954512;28;20049;-76
2021/06/17 07:48:58;;;;;;;10.10;4.57;;;26.50;91.80;;;;;;4955756;28;20538;-76
2021/06/17 07:51:25;;;;;;;8.63;4.68;;;26.70;93.00;;;;;;4956030;28;20061;-77
2021/06/17 07:53:51;;;;;;;7.38;4.85;;;26.90;92.80;;;;;;4955629;28;20031;-83
2021/06/17 07:56:17;;;;;;;10.30;5.05;;;27.00;92.40;;;;;;4955329;28;20038;-78
2021/06/17 07:58:43;;;;;;;5.18;4.20;;;26.70;91.50;;;;;;4955214;28;20028;-74
2021/06/17 08:01:10;;;;;;;7.43;4.47;;;26.90;91.80;;;;;;4954275;29;20374;-79
2021/06/17 08:03:35;;;;;;;8.95;4.70;;;27.10;92.30;;;;;;4957935;28;20023;-75
2021/06/17 08:06:01;;;;;;;7.88;3.97;;;27.10;91.20;;;;;;4974767;28;20500;-80
2021/06/17 08:08:27;;;;;;;7.18;4.20;;;27.40;90.70;;;;;;4975019;28;20097;-76
2021/06/17 08:10:53;;;;;;;6.57;4.47;;;27.50;90.30;;;;;;4974557;28;20027;-79
2021/06/17 08:13:19;;;;;;;6.68;4.43;;;27.60;90.20;;;;;;4978431;28;20101;-80
2021/06/17 08:15:45;;;;;;;9.65;4.55;;;27.70;90.70;;;;;;4978695;28;20023;-77
2021/06/17 08:18:11;;;;;;;7.05;4.10;;;28.00;91.60;;;;;;4978413;28;20023;-77
2021/06/17 08:20:38;;;;;;;8.48;4.30;;;28.10;91.00;;;;;;4961163;28;20019;-75
2021/06/17 08:23:04;;;;;;;8.35;4.60;;;28.10;89.90;;;;;;4978241;28;20090;-77
2021/06/17 08:25:31;;;;;;;7.85;4.05;;;28.30;90.80;;;;;;4978480;28;20477;-73
2021/06/17 08:28:01;;;;;;;9.63;4.20;;;28.60;88.70;;;;;;4978607;28;20027;-78
2021/06/17 08:30:27;;;;;;;9.80;4.20;;;28.60;86.70;;;;;;4961056;28;20125;-79
2021/06/17 08:32:53;;;;;;;9.15;3.97;;;28.60;86.00;;;;;;4980646;28;20034;-76
2021/06/17 08:35:19;;;;;;;7.70;4.18;;;28.60;86.10;;;;;;4979584;28;20022;-74
2021/06/17 08:37:45;;;;;;;10.20;4.03;;;28.80;88.80;;;;;;4997559;28;20168;-78
2021/06/17 08:40:12;;;;;;;7.80;3.90;;;28.70;85.30;;;;;;4980037;28;20080;-80
2021/06/17 08:42:38;;;;;;;6.90;3.75;;;28.60;83.50;;;;;;4997381;28;20030;-74
2021/06/17 08:45:09;;;;;;;17.35;5.40;;;28.80;84.50;;;;;;4997528;28;20576;-77
2021/06/17 08:47:36;;;;;;;20.00;7.53;;;29.20;85.80;;;;;;4997715;28;20033;-78
2021/06/17 08:50:08;;;;;;;21.02;6.05;;;29.20;82.60;;;;;;4980114;28;20022;-80
2021/06/17 08:52:35;;;;;;;14.75;6.38;;;29.40;83.80;;;;;;4997595;28;20014;-76
2021/06/17 08:55:19;;;;;;;14.50;5.90;;;29.40;81.70;;;;;;4979921;28;20381;-79
2021/06/17 08:57:48;;;;;;;10.80;3.85;;;29.60;83.00;;;;;;4997573;28;20065;-77
2021/06/17 09:00:19;;;;;;;6.32;3.58;;;30.00;82.00;;;;;;4997422;28;20350;-80
2021/06/17 09:03:01;;;;;;;8.88;3.22;;;30.00;81.70;;;;;;4979733;28;20026;-74
2021/06/17 09:05:28;;;;;;;7.22;3.30;;;29.70;76.10;;;;;;4997082;28;20038;-79
2021/06/17 09:07:56;;;;;;;7.30;3.80;;;29.70;81.00;;;;;;4997112;28;20041;-78
2021/06/17 09:10:22;;;;;;;8.90;3.58;;;29.80;81.20;;;;;;4997258;28;20025;-80
2021/06/17 09:12:53;;;;;;;6.53;3.33;;;29.90;82.40;;;;;;4979523;28;20034;-75
2021/06/17 09:15:35;;;;;;;5.72;3.15;;;30.00;79.70;;;;;;4997240;28;20053;-78
2021/06/17 09:18:11;;;;;;;4.85;2.95;;;30.20;79.10;;;;;;4979378;28;20026;-78
2021/06/17 09:20:37;;;;;;;4.60;2.95;;;30.20;77.60;;;;;;4979531;28;20026;-74
2021/06/17 09:23:25;;;;;;;3.78;2.88;;;30.20;75.60;;;;;;4996094;28;20165;-78
2021/06/17 09:25:53;;;;;;;5.35;2.72;;;30.10;75.40;;;;;;4996904;28;20105;-74
2021/06/17 09:28:19;;;;;;;7.28;3.28;;;30.50;78.30;;;;;;4997028;28;20052;-75
2021/06/17 09:30:45;;;;;;;7.07;3.13;;;30.20;74.30;;;;;;4996576;28;20373;-76
2021/06/17 09:33:14;;;;;;;7.15;2.97;;;30.20;76.90;;;;;;4995549;28;20022;-79
2021/06/17 09:35:51;;;;;;;5.47;2.95;;;30.50;77.50;;;;;;4997258;28;20042;-79
2021/06/17 09:38:18;;;;;;;7.50;3.05;;;30.70;78.30;;;;;;4979110;28;20026;-78
2021/06/17 09:40:47;;;;;;;9.00;2.95;;;30.40;77.10;;;;;;4996485;28;20105;-78
2021/06/17 09:43:21;;;;;;;31.75;4.32;;;;;;;;;;4996198;28;20034;-78
2021/06/17 09:46:00;;;;;;;13.25;3.33;;;30.80;74.10;;;;;;4976691;28;20152;-74
2021/06/17 09:48:37;;;;;;;7.88;2.63;;;31.20;79.10;;;;;;4976830;28;20041;-78
2021/06/17 09:51:25;;;;;;;8.80;2.53;;;31.60;77.70;;;;;;4976882;28;20019;-79
2021/06/17 09:53:53;;;;;;;7.63;2.65;;;31.80;72.00;;;;;;4957913;28;20027;-78
2021/06/17 09:56:32;;;;;;;4.93;2.65;;;31.50;69.70;;;;;;4976660;28;20054;-79
2021/06/17 09:58:58;;;;;;;7.25;2.80;;;31.30;72.40;;;;;;4959261;28;20026;-75
2021/06/17 10:01:37;;;;;;;5.25;3.05;;;31.20;72.90;;;;;;4976730;28;20023;-78
2021/06/17 10:04:10;;;;;;;5.28;2.55;;;31.30;71.70;;;;;;4976332;28;20046;-75
2021/06/17 10:06:41;;;;;;;4.72;2.42;;;31.90;74.40;;;;;;4959275;28;20054;-77
2021/06/17 10:09:10;;;;;;;11.25;2.95;;;31.80;73.70;;;;;;4976636;28;20062;-78
2021/06/17 10:11:37;;;;;;;5.53;2.33;;;;;;;;;;4976503;28;20026;-78
2021/06/17 10:14:04;;;;;;;5.35;2.65;;;31.60;81.50;;;;;;4976452;28;20477;-79
2021/06/17 10:16:32;;;;;;;8.50;2.83;;;31.80;72.10;;;;;;4976280;28;20504;-75
2021/06/17 10:18:59;;;;;;;6.30;2.40;;;32.10;74.10;;;;;;4976270;28;20062;-75
2021/06/17 10:21:25;;;;;;;4.60;2.28;;;31.80;70.00;;;;;;4976466;28;20026;-77
2021/06/17 10:23:51;;;;;;;3.40;2.58;;;31.70;67.80;;;;;;4976255;28;20034;-76
2021/06/17 10:26:23;;;;;;;10.85;2.60;;;31.80;68.40;;;;;;4976282;28;20390;-74
2021/06/17 10:28:51;;;;;;;5.35;2.10;;;31.80;69.00;;;;;;4976109;28;20027;-74
2021/06/17 10:31:35;;;;;;;9.10;2.95;;;32.10;69.70;;;;;;4976133;28;20023;-75
2021/06/17 10:34:23;;;;;;;5.45;2.60;;;32.30;70.30;;;;;;4976187;28;20019;-78
2021/06/17 10:37:12;;;;;;;4.38;2.30;;;31.70;63.70;;;;;;4957941;28;20018;-76
2021/06/17 10:39:50;;;;;;;3.80;2.60;;;31.80;68.90;;;;;;4975947;28;20026;-79
2021/06/17 10:42:19;;;;;;;5.15;2.70;;;31.80;67.10;;;;;;4958496;28;20034;-78
2021/06/17 10:44:55;;;;;;;4.20;2.50;;;32.30;69.00;;;;;;4958400;28;20034;-78
2021/06/17 10:47:44;;;;;;;4.55;2.45;;;31.90;64.30;;;;;;4975925;28;20042;-79
2021/06/17 10:50:32;;;;;;;4.47;2.42;;;32.10;64.40;;;;;;4975888;28;20381;-78
2021/06/17 10:53:31;;;;;;;3.22;2.15;;;32.10;63.90;;;;;;4976031;28;20034;-74
2021/06/17 10:56:16;;;;;;;3.97;2.45;;;32.00;62.90;;;;;;4975992;28;20109;-79
2021/06/17 10:58:43;;;;;;;8.70;2.80;;;32.40;64.50;;;;;;4975724;28;20034;-79
2021/06/17 11:01:25;;;;;;;4.30;2.40;;;32.90;66.90;;;;;;4958270;28;20473;-80
2021/06/17 11:04:29;;;;;;;3.22;2.40;;;32.80;70.60;;;;;;4975448;28;20130;-80
2021/06/17 11:06:55;;;;;;;;;;;33.00;66.40;;;;;;4954388;29;20027;-77
2021/06/17 11:09:40;;;;;;;4.25;2.60;;;32.70;69.30;;;;;;4954239;29;19906;-79
2021/06/17 11:12:29;;;;;;;6.28;2.40;;;32.10;67.80;;;;;;4954020;29;20038;-80
2021/06/17 11:15:01;;;;;;;4.15;2.30;;;31.60;69.30;;;;;;4932009;29;20039;-81
2021/06/17 11:17:29;;;;;;;5.25;2.30;;;31.90;69.50;;;;;;4937976;29;20047;-80
2021/06/17 11:19:55;;;;;;;4.38;2.50;;;32.40;70.10;;;;;;4938057;29;20414;-80
2021/06/17 11:22:35;;;;;;;5.35;2.05;;;32.40;69.40;;;;;;4937932;29;20509;-79
2021/06/17 11:25:21;;;;;;;4.38;2.40;;;33.00;69.70;;;;;;4954530;29;20031;-80
2021/06/17 11:28:11;;;;;;;4.55;2.38;;;33.10;67.40;;;;;;4938087;29;20560;-80
2021/06/17 11:30:43;;;;;;;4.13;3.03;;;32.60;62.50;;;;;;4937875;29;20039;-79
2021/06/17 11:33:15;;;;;;;2.85;2.25;;;32.70;66.10;;;;;;4953985;29;20493;-79
2021/06/17 11:36:09;;;;;;;3.20;2.40;;;32.50;66.10;;;;;;4954286;29;20059;-78
2021/06/17 11:38:38;;;;;;;4.97;2.13;;;32.60;63.70;;;;;;4972853;28;20039;-79
2021/06/17 11:41:16;;;;;;;4.40;2.17;;;33.10;67.40;;;;;;4975056;28;20019;-79
2021/06/17 11:43:42;;;;;;;4.47;2.40;;;33.20;62.50;;;;;;4975149;28;20363;-80
2021/06/17 11:46:24;;;;;;;4.13;2.20;;;33.00;64.30;;;;;;4974696;28;20027;-80
2021/06/17 11:48:57;;;;;;;5.68;2.47;;;33.70;66.90;;;;;;4975077;28;20544;-80
2021/06/17 11:51:23;;;;;;;3.75;2.03;;;33.20;65.40;;;;;;4975092;28;20073;-80
2021/06/17 11:53:51;;;;;;;3.83;2.28;;;33.90;63.20;;;;;;4957759;28;20114;-80
2021/06/17 11:56:25;;;;;;;3.72;2.40;;;34.00;66.10;;;;;;4957613;28;20026;-78
2021/06/17 11:58:51;;;;;;;4.20;2.30;;;33.30;60.00;;;;;;4975022;28;20019;-80
2021/06/17 12:01:17;;;;;;;3.42;1.98;;;32.90;61.70;;;;;;4974895;28;20026;-79
2021/06/17 12:04:09;;;;;;;5.55;2.15;;;33.40;64.20;;;;;;4953897;28;20469;-78
2021/06/17 12:06:36;;;;;;;6.63;2.40;;;33.10;60.60;;;;;;4955943;28;20030;-77
2021/06/17 12:09:05;;;;;;;3.20;2.33;;;32.90;61.80;;;;;;4954347;28;20114;-81
2021/06/17 12:11:31;;;;;;;5.85;2.20;;;32.20;60.70;;;;;;4955855;28;20106;-76
2021/06/17 12:13:57;;;;;;;5.05;2.20;;;31.50;61.50;;;;;;4955821;28;20028;-80
2021/06/17 12:16:23;;;;;;;3.42;2.10;;;31.50;60.60;;;;;;4954073;28;20030;-81
2021/06/17 12:18:50;;;;;;;4.50;2.22;;;32.00;62.10;;;;;;4955981;28;20440;-83
2021/06/17 12:21:28;;;;;;;3.67;2.10;;;32.70;64.60;;;;;;4955421;28;20030;-80
2021/06/17 12:23:55;;;;;;;6.63;2.30;;;33.30;65.40;;;;;;4955767;28;20071;-80
2021/06/17 12:26:32;;;;;;;3.60;2.40;;;33.40;63.50;;;;;;4955435;28;20062;-82
2021/06/17 12:29:05;;;;;;;3.75;2.05;;;32.70;62.10;;;;;;4955587;28;20106;-78
2021/06/17 12:31:37;;;;;;;4.15;2.53;;;32.40;65.70;;;;;;4955641;28;20059;-79
2021/06/17 12:34:09;;;;;;;3.57;2.00;;;32.10;66.70;;;;;;4955613;28;20489;-79
2021/06/17 12:36:35;;;;;;;4.43;2.30;;;32.00;66.80;;;;;;4955774;28;20075;-78
2021/06/17 12:39:19;;;;;;;6.57;2.30;;;32.50;67.20;;;;;;4954065;29;20023;-81
2021/06/17 12:41:50;;;;;;;5.72;2.30;;;33.00;64.50;;;;;;4954125;28;20031;-83
2021/06/17 12:44:30;;;;;;;3.83;2.10;;;33.30;64.20;;;;;;4955574;28;20528;-80
2021/06/17 12:47:23;;;;;;;2.88;1.83;;;33.50;63.90;;;;;;4954217;28;20061;-81
2021/06/17 12:52:38;;;;;;;4.65;2.15;;;33.80;65.10;;;;;;4955842;29;20078;-82
2021/06/17 12:55:06;;;;;;;3.50;2.30;;;33.90;68.70;;;;;;4955294;28;20024;-83
2021/06/17 12:57:35;;;;;;;3.22;2.13;;;34.20;66.30;;;;;;4955070;28;20024;-80
2021/06/17 13:00:23;;;;;;;2.88;2.05;;;33.70;63.80;;;;;;4957813;29;20031;-79
2021/06/17 13:02:50;;;;;;;3.80;2.33;;;32.70;66.10;;;;;;4958433;28;20027;-80
2021/06/17 13:05:24;;;;;;;4.15;2.25;;;32.40;65.90;;;;;;4956898;29;20134;-79